sensor_id;sensor_type;location;lat;lon;timestamp;P1;durP1;ratioP1;P2;durP2;ratioP2
7919;SDS011;18778;47.610;9.776;2024-01-30T00:01:29;29.93;;;18.33;;
7919;SDS011;18778;47.610;9.776;2024-01-30T00:03:54;29.77;;;19.03;;
7919;SDS011;18778;47.610;9.776;2024-01-30T00:06:20;40.47;;;23.30;;
7919;SDS011;18778;47.610;9.776;2024-01-30T00:08:46;32.07;;;19.30;;
7919;SDS011;18778;47.610;9.776;2024-01-30T00:11:13;36.03;;;22.13;;
7919;SDS011;18778;47.610;9.776;2024-01-30T00:13:39;46.20;;;25.40;;
7919;SDS011;18778;47.610;9.776;2024-01-30T00:16:05;46.07;;;24.97;;
7919;SDS011;18778;47.610;9.776;2024-01-30T00:18:31;25.67;;;17.57;;
7919;SDS011;18778;47.610;9.776;2024-01-30T00:20:57;26.97;;;16.90;;
7919;SDS011;18778;47.610;9.776;2024-01-30T00:23:23;28.97;;;16.93;;
7919;SDS011;18778;47.610;9.776;2024-01-30T00:25:49;27.53;;;17.57;;
7919;SDS011;18778;47.610;9.776;2024-01-30T00:28:15;28.57;;;17.77;;
7919;SDS011;18778;47.610;9.776;2024-01-30T00:30:41;29.30;;;17.80;;
7919;SDS011;18778;47.610;9.776;2024-01-30T00:33:07;30.43;;;17.83;;
7919;SDS011;18778;47.610;9.776;2024-01-30T00:35:34;27.37;;;17.87;;
7919;SDS011;18778;47.610;9.776;2024-01-30T00:37:59;27.87;;;16.67;;
7919;SDS011;18778;47.610;9.776;2024-01-30T00:40:25;25.63;;;17.20;;
7919;SDS011;18778;47.610;9.776;2024-01-30T00:42:51;23.70;;;16.43;;
7919;SDS011;18778;47.610;9.776;2024-01-30T00:45:17;22.07;;;16.27;;
7919;SDS011;18778;47.610;9.776;2024-01-30T00:47:43;26.37;;;17.53;;
7919;SDS011;18778;47.610;9.776;2024-01-30T00:50:09;27.07;;;16.70;;
7919;SDS011;18778;47.610;9.776;2024-01-30T00:52:36;23.13;;;15.30;;
7919;SDS011;18778;47.610;9.776;2024-01-30T00:55:04;27.50;;;17.83;;
7919;SDS011;18778;47.610;9.776;2024-01-30T00:57:30;26.33;;;16.60;;
7919;SDS011;18778;47.610;9.776;2024-01-30T00:59:55;28.57;;;17.83;;
7919;SDS011;18778;47.610;9.776;2024-01-30T01:02:21;28.83;;;18.30;;
7919;SDS011;18778;47.610;9.776;2024-01-30T01:04:47;27.93;;;17.37;;
7919;SDS011;18778;47.610;9.776;2024-01-30T01:07:12;26.37;;;17.07;;
7919;SDS011;18778;47.610;9.776;2024-01-30T01:09:38;31.70;;;18.40;;
7919;SDS011;18778;47.610;9.776;2024-01-30T01:12:04;27.10;;;16.93;;
7919;SDS011;18778;47.610;9.776;2024-01-30T01:14:30;30.17;;;18.40;;
7919;SDS011;18778;47.610;9.776;2024-01-30T01:16:56;30.13;;;18.23;;
7919;SDS011;18778;47.610;9.776;2024-01-30T01:19:21;29.73;;;18.40;;
7919;SDS011;18778;47.610;9.776;2024-01-30T01:21:47;31.40;;;18.23;;
7919;SDS011;18778;47.610;9.776;2024-01-30T01:24:13;30.33;;;18.37;;
7919;SDS011;18778;47.610;9.776;2024-01-30T01:26:39;29.00;;;17.80;;
7919;SDS011;18778;47.610;9.776;2024-01-30T01:29:06;27.57;;;16.83;;
7919;SDS011;18778;47.610;9.776;2024-01-30T01:31:35;28.67;;;17.33;;
7919;SDS011;18778;47.610;9.776;2024-01-30T01:34:10;29.50;;;17.77;;
7919;SDS011;18778;47.610;9.776;2024-01-30T01:36:37;28.47;;;18.13;;
7919;SDS011;18778;47.610;9.776;2024-01-30T01:39:03;31.57;;;18.50;;
7919;SDS011;18778;47.610;9.776;2024-01-30T01:41:32;25.30;;;17.80;;
7919;SDS011;18778;47.610;9.776;2024-01-30T01:43:58;31.20;;;18.30;;
7919;SDS011;18778;47.610;9.776;2024-01-30T01:46:27;29.40;;;17.00;;
7919;SDS011;18778;47.610;9.776;2024-01-30T01:48:57;27.07;;;17.97;;
7919;SDS011;18778;47.610;9.776;2024-01-30T01:51:23;29.93;;;17.90;;
7919;SDS011;18778;47.610;9.776;2024-01-30T01:53:52;28.73;;;18.43;;
7919;SDS011;18778;47.610;9.776;2024-01-30T01:56:18;32.37;;;20.33;;
7919;SDS011;18778;47.610;9.776;2024-01-30T01:58:44;29.07;;;19.73;;
7919;SDS011;18778;47.610;9.776;2024-01-30T02:01:12;31.50;;;21.43;;
7919;SDS011;18778;47.610;9.776;2024-01-30T02:03:39;29.40;;;18.30;;
7919;SDS011;18778;47.610;9.776;2024-01-30T02:06:06;31.97;;;19.37;;
7919;SDS011;18778;47.610;9.776;2024-01-30T02:08:31;26.50;;;17.63;;
7919;SDS011;18778;47.610;9.776;2024-01-30T02:10:57;27.87;;;17.23;;
7919;SDS011;18778;47.610;9.776;2024-01-30T02:13:23;28.53;;;17.70;;
7919;SDS011;18778;47.610;9.776;2024-01-30T02:15:50;26.07;;;16.97;;
7919;SDS011;18778;47.610;9.776;2024-01-30T02:18:19;23.80;;;15.53;;
7919;SDS011;18778;47.610;9.776;2024-01-30T02:20:46;26.20;;;15.93;;
7919;SDS011;18778;47.610;9.776;2024-01-30T02:23:12;22.83;;;15.60;;
7919;SDS011;18778;47.610;9.776;2024-01-30T02:25:40;21.47;;;14.63;;
7919;SDS011;18778;47.610;9.776;2024-01-30T02:28:12;20.30;;;13.93;;
7919;SDS011;18778;47.610;9.776;2024-01-30T02:30:38;28.47;;;15.13;;
7919;SDS011;18778;47.610;9.776;2024-01-30T02:33:04;23.17;;;14.57;;
7919;SDS011;18778;47.610;9.776;2024-01-30T02:35:30;22.67;;;15.13;;
7919;SDS011;18778;47.610;9.776;2024-01-30T02:37:56;22.90;;;14.47;;
7919;SDS011;18778;47.610;9.776;2024-01-30T02:40:22;22.43;;;14.40;;
7919;SDS011;18778;47.610;9.776;2024-01-30T02:42:48;21.40;;;13.23;;
7919;SDS011;18778;47.610;9.776;2024-01-30T02:45:13;21.47;;;14.67;;
7919;SDS011;18778;47.610;9.776;2024-01-30T02:47:39;23.67;;;14.43;;
7919;SDS011;18778;47.610;9.776;2024-01-30T02:50:05;17.73;;;12.43;;
7919;SDS011;18778;47.610;9.776;2024-01-30T02:52:31;19.40;;;13.63;;
7919;SDS011;18778;47.610;9.776;2024-01-30T02:54:57;23.47;;;13.67;;
7919;SDS011;18778;47.610;9.776;2024-01-30T02:57:23;17.43;;;13.20;;
7919;SDS011;18778;47.610;9.776;2024-01-30T02:59:49;20.30;;;13.73;;
7919;SDS011;18778;47.610;9.776;2024-01-30T03:02:14;20.53;;;14.33;;
7919;SDS011;18778;47.610;9.776;2024-01-30T03:04:41;21.57;;;14.30;;
7919;SDS011;18778;47.610;9.776;2024-01-30T03:07:07;19.37;;;13.47;;
7919;SDS011;18778;47.610;9.776;2024-01-30T03:09:33;19.63;;;13.33;;
7919;SDS011;18778;47.610;9.776;2024-01-30T03:11:59;20.43;;;13.63;;
7919;SDS011;18778;47.610;9.776;2024-01-30T03:14:25;20.80;;;14.83;;
7919;SDS011;18778;47.610;9.776;2024-01-30T03:16:51;24.43;;;15.60;;
7919;SDS011;18778;47.610;9.776;2024-01-30T03:19:16;26.37;;;14.77;;
7919;SDS011;18778;47.610;9.776;2024-01-30T03:21:43;24.20;;;16.70;;
7919;SDS011;18778;47.610;9.776;2024-01-30T03:24:09;22.97;;;14.60;;
7919;SDS011;18778;47.610;9.776;2024-01-30T03:26:35;20.30;;;14.80;;
7919;SDS011;18778;47.610;9.776;2024-01-30T03:29:00;22.87;;;14.80;;
7919;SDS011;18778;47.610;9.776;2024-01-30T03:31:26;21.43;;;14.80;;
7919;SDS011;18778;47.610;9.776;2024-01-30T03:33:52;20.33;;;14.03;;
7919;SDS011;18778;47.610;9.776;2024-01-30T03:36:17;23.03;;;17.30;;
7919;SDS011;18778;47.610;9.776;2024-01-30T03:38:43;27.17;;;19.17;;
7919;SDS011;18778;47.610;9.776;2024-01-30T03:41:09;24.83;;;18.17;;
7919;SDS011;18778;47.610;9.776;2024-01-30T03:43:35;23.50;;;15.57;;
7919;SDS011;18778;47.610;9.776;2024-01-30T03:46:01;21.87;;;14.40;;
7919;SDS011;18778;47.610;9.776;2024-01-30T03:48:28;24.40;;;17.33;;
7919;SDS011;18778;47.610;9.776;2024-01-30T03:50:54;35.30;;;24.87;;
7919;SDS011;18778;47.610;9.776;2024-01-30T03:53:20;32.97;;;20.63;;
7919;SDS011;18778;47.610;9.776;2024-01-30T03:55:46;30.70;;;21.07;;
7919;SDS011;18778;47.610;9.776;2024-01-30T03:58:12;41.27;;;27.40;;
7919;SDS011;18778;47.610;9.776;2024-01-30T04:00:37;43.00;;;28.77;;
7919;SDS011;18778;47.610;9.776;2024-01-30T04:03:03;29.10;;;21.33;;
7919;SDS011;18778;47.610;9.776;2024-01-30T04:05:29;21.87;;;16.50;;
7919;SDS011;18778;47.610;9.776;2024-01-30T04:07:54;17.23;;;13.23;;
7919;SDS011;18778;47.610;9.776;2024-01-30T04:10:20;13.43;;;10.93;;
7919;SDS011;18778;47.610;9.776;2024-01-30T04:12:46;15.60;;;10.53;;
7919;SDS011;18778;47.610;9.776;2024-01-30T04:15:12;13.00;;;9.93;;
7919;SDS011;18778;47.610;9.776;2024-01-30T04:17:39;13.17;;;9.90;;
7919;SDS011;18778;47.610;9.776;2024-01-30T04:20:05;15.80;;;10.63;;
7919;SDS011;18778;47.610;9.776;2024-01-30T04:22:31;14.73;;;9.73;;
7919;SDS011;18778;47.610;9.776;2024-01-30T04:24:56;18.60;;;10.60;;
7919;SDS011;18778;47.610;9.776;2024-01-30T04:27:22;13.97;;;10.00;;
7919;SDS011;18778;47.610;9.776;2024-01-30T04:29:48;14.70;;;10.17;;
7919;SDS011;18778;47.610;9.776;2024-01-30T04:32:14;14.67;;;10.27;;
7919;SDS011;18778;47.610;9.776;2024-01-30T04:34:39;13.83;;;9.77;;
7919;SDS011;18778;47.610;9.776;2024-01-30T04:37:05;12.43;;;9.67;;
7919;SDS011;18778;47.610;9.776;2024-01-30T04:39:32;11.53;;;8.67;;
7919;SDS011;18778;47.610;9.776;2024-01-30T04:41:58;10.63;;;8.33;;
7919;SDS011;18778;47.610;9.776;2024-01-30T04:44:24;10.80;;;8.30;;
7919;SDS011;18778;47.610;9.776;2024-01-30T04:46:50;10.50;;;8.43;;
7919;SDS011;18778;47.610;9.776;2024-01-30T04:49:16;11.73;;;7.80;;
7919;SDS011;18778;47.610;9.776;2024-01-30T04:51:41;14.00;;;9.30;;
7919;SDS011;18778;47.610;9.776;2024-01-30T04:54:07;11.17;;;8.63;;
7919;SDS011;18778;47.610;9.776;2024-01-30T04:56:32;16.17;;;9.27;;
7919;SDS011;18778;47.610;9.776;2024-01-30T04:58:58;9.57;;;7.30;;
7919;SDS011;18778;47.610;9.776;2024-01-30T05:01:24;11.97;;;7.43;;
7919;SDS011;18778;47.610;9.776;2024-01-30T05:03:49;11.13;;;8.47;;
7919;SDS011;18778;47.610;9.776;2024-01-30T05:06:23;8.60;;;6.83;;
7919;SDS011;18778;47.610;9.776;2024-01-30T05:08:52;9.50;;;7.17;;
7919;SDS011;18778;47.610;9.776;2024-01-30T05:11:18;9.10;;;7.80;;
7919;SDS011;18778;47.610;9.776;2024-01-30T05:13:44;8.80;;;7.50;;
7919;SDS011;18778;47.610;9.776;2024-01-30T05:16:09;9.80;;;7.33;;
7919;SDS011;18778;47.610;9.776;2024-01-30T05:18:35;7.40;;;6.57;;
7919;SDS011;18778;47.610;9.776;2024-01-30T05:21:01;9.63;;;7.13;;
7919;SDS011;18778;47.610;9.776;2024-01-30T05:23:27;7.47;;;6.67;;
7919;SDS011;18778;47.610;9.776;2024-01-30T05:25:53;7.77;;;6.73;;
7919;SDS011;18778;47.610;9.776;2024-01-30T05:28:19;8.27;;;7.33;;
7919;SDS011;18778;47.610;9.776;2024-01-30T05:30:45;8.30;;;7.20;;
7919;SDS011;18778;47.610;9.776;2024-01-30T05:33:11;9.33;;;6.57;;
7919;SDS011;18778;47.610;9.776;2024-01-30T05:35:38;8.63;;;7.20;;
7919;SDS011;18778;47.610;9.776;2024-01-30T05:38:04;10.37;;;7.33;;
7919;SDS011;18778;47.610;9.776;2024-01-30T05:40:30;9.40;;;7.90;;
7919;SDS011;18778;47.610;9.776;2024-01-30T05:46:16;9.77;;;7.50;;
7919;SDS011;18778;47.610;9.776;2024-01-30T05:48:42;8.37;;;6.87;;
7919;SDS011;18778;47.610;9.776;2024-01-30T05:51:08;8.53;;;7.07;;
7919;SDS011;18778;47.610;9.776;2024-01-30T05:53:34;7.50;;;6.70;;
7919;SDS011;18778;47.610;9.776;2024-01-30T05:56:01;8.53;;;6.83;;
7919;SDS011;18778;47.610;9.776;2024-01-30T05:58:27;9.60;;;7.43;;
7919;SDS011;18778;47.610;9.776;2024-01-30T06:00:53;9.33;;;6.97;;
7919;SDS011;18778;47.610;9.776;2024-01-30T06:03:19;10.30;;;7.17;;
7919;SDS011;18778;47.610;9.776;2024-01-30T06:05:45;9.70;;;7.33;;
7919;SDS011;18778;47.610;9.776;2024-01-30T06:08:11;8.77;;;7.00;;
7919;SDS011;18778;47.610;9.776;2024-01-30T06:10:36;9.20;;;6.60;;
7919;SDS011;18778;47.610;9.776;2024-01-30T06:13:02;9.33;;;6.80;;
7919;SDS011;18778;47.610;9.776;2024-01-30T06:15:28;9.87;;;7.47;;
7919;SDS011;18778;47.610;9.776;2024-01-30T06:17:58;10.40;;;7.97;;
7919;SDS011;18778;47.610;9.776;2024-01-30T06:20:24;12.03;;;7.87;;
7919;SDS011;18778;47.610;9.776;2024-01-30T06:22:52;8.77;;;7.17;;
7919;SDS011;18778;47.610;9.776;2024-01-30T06:25:18;11.97;;;7.93;;
7919;SDS011;18778;47.610;9.776;2024-01-30T06:27:44;13.60;;;9.73;;
7919;SDS011;18778;47.610;9.776;2024-01-30T06:30:10;12.40;;;9.17;;
7919;SDS011;18778;47.610;9.776;2024-01-30T06:32:36;10.80;;;7.90;;
7919;SDS011;18778;47.610;9.776;2024-01-30T06:35:02;11.93;;;8.90;;
7919;SDS011;18778;47.610;9.776;2024-01-30T06:37:28;11.37;;;8.47;;
7919;SDS011;18778;47.610;9.776;2024-01-30T06:39:53;10.77;;;8.53;;
7919;SDS011;18778;47.610;9.776;2024-01-30T06:42:19;9.47;;;7.67;;
7919;SDS011;18778;47.610;9.776;2024-01-30T06:44:45;11.40;;;8.70;;
7919;SDS011;18778;47.610;9.776;2024-01-30T06:47:10;15.33;;;8.97;;
7919;SDS011;18778;47.610;9.776;2024-01-30T06:49:36;11.17;;;8.60;;
7919;SDS011;18778;47.610;9.776;2024-01-30T06:52:04;10.37;;;8.30;;
7919;SDS011;18778;47.610;9.776;2024-01-30T06:54:30;11.47;;;8.90;;
7919;SDS011;18778;47.610;9.776;2024-01-30T06:56:56;12.97;;;8.27;;
7919;SDS011;18778;47.610;9.776;2024-01-30T06:59:22;12.43;;;8.57;;
7919;SDS011;18778;47.610;9.776;2024-01-30T07:01:47;10.33;;;8.13;;
7919;SDS011;18778;47.610;9.776;2024-01-30T07:04:13;12.10;;;9.30;;
7919;SDS011;18778;47.610;9.776;2024-01-30T07:06:38;15.60;;;10.83;;
7919;SDS011;18778;47.610;9.776;2024-01-30T07:09:04;14.37;;;10.03;;
7919;SDS011;18778;47.610;9.776;2024-01-30T07:11:30;15.93;;;10.57;;
7919;SDS011;18778;47.610;9.776;2024-01-30T07:13:56;14.33;;;10.37;;
7919;SDS011;18778;47.610;9.776;2024-01-30T07:16:22;13.60;;;9.37;;
7919;SDS011;18778;47.610;9.776;2024-01-30T07:18:48;15.83;;;9.50;;
7919;SDS011;18778;47.610;9.776;2024-01-30T07:21:14;13.10;;;9.23;;
7919;SDS011;18778;47.610;9.776;2024-01-30T07:23:40;12.63;;;9.67;;
7919;SDS011;18778;47.610;9.776;2024-01-30T07:26:06;17.27;;;11.50;;
7919;SDS011;18778;47.610;9.776;2024-01-30T07:28:33;22.70;;;13.63;;
7919;SDS011;18778;47.610;9.776;2024-01-30T07:30:59;22.33;;;13.70;;
7919;SDS011;18778;47.610;9.776;2024-01-30T07:33:25;24.40;;;13.60;;
7919;SDS011;18778;47.610;9.776;2024-01-30T07:35:52;15.83;;;10.43;;
7919;SDS011;18778;47.610;9.776;2024-01-30T07:38:18;16.83;;;11.20;;
7919;SDS011;18778;47.610;9.776;2024-01-30T07:40:44;19.80;;;13.00;;
7919;SDS011;18778;47.610;9.776;2024-01-30T07:43:09;26.23;;;15.33;;
7919;SDS011;18778;47.610;9.776;2024-01-30T07:45:35;31.87;;;19.57;;
7919;SDS011;18778;47.610;9.776;2024-01-30T07:48:02;26.80;;;16.30;;
7919;SDS011;18778;47.610;9.776;2024-01-30T07:50:28;26.20;;;15.43;;
7919;SDS011;18778;47.610;9.776;2024-01-30T07:52:55;28.07;;;18.43;;
7919;SDS011;18778;47.610;9.776;2024-01-30T07:55:21;30.83;;;18.30;;
7919;SDS011;18778;47.610;9.776;2024-01-30T07:57:53;32.00;;;19.93;;
7919;SDS011;18778;47.610;9.776;2024-01-30T08:00:20;35.57;;;21.93;;
7919;SDS011;18778;47.610;9.776;2024-01-30T08:02:46;42.03;;;24.07;;
7919;SDS011;18778;47.610;9.776;2024-01-30T08:05:12;46.53;;;27.80;;
7919;SDS011;18778;47.610;9.776;2024-01-30T08:07:40;38.27;;;22.93;;
7919;SDS011;18778;47.610;9.776;2024-01-30T08:10:08;27.73;;;18.50;;
7919;SDS011;18778;47.610;9.776;2024-01-30T08:12:36;24.10;;;17.20;;
7919;SDS011;18778;47.610;9.776;2024-01-30T08:15:02;35.80;;;24.90;;
7919;SDS011;18778;47.610;9.776;2024-01-30T08:17:28;29.43;;;18.97;;
7919;SDS011;18778;47.610;9.776;2024-01-30T08:19:54;29.10;;;18.57;;
7919;SDS011;18778;47.610;9.776;2024-01-30T08:22:19;25.63;;;16.97;;
7919;SDS011;18778;47.610;9.776;2024-01-30T08:24:45;21.70;;;15.93;;
7919;SDS011;18778;47.610;9.776;2024-01-30T08:27:10;19.97;;;14.00;;
7919;SDS011;18778;47.610;9.776;2024-01-30T08:29:37;20.40;;;13.73;;
7919;SDS011;18778;47.610;9.776;2024-01-30T08:32:03;17.10;;;11.67;;
7919;SDS011;18778;47.610;9.776;2024-01-30T08:34:30;15.17;;;10.67;;
7919;SDS011;18778;47.610;9.776;2024-01-30T08:36:55;18.10;;;11.80;;
7919;SDS011;18778;47.610;9.776;2024-01-30T08:39:21;15.87;;;11.17;;
7919;SDS011;18778;47.610;9.776;2024-01-30T08:41:47;17.13;;;11.47;;
7919;SDS011;18778;47.610;9.776;2024-01-30T08:44:12;15.40;;;11.70;;
7919;SDS011;18778;47.610;9.776;2024-01-30T08:46:38;14.67;;;10.77;;
7919;SDS011;18778;47.610;9.776;2024-01-30T08:49:03;15.23;;;10.70;;
7919;SDS011;18778;47.610;9.776;2024-01-30T08:51:29;14.13;;;9.73;;
7919;SDS011;18778;47.610;9.776;2024-01-30T08:53:55;12.57;;;9.57;;
7919;SDS011;18778;47.610;9.776;2024-01-30T08:56:21;14.60;;;10.10;;
7919;SDS011;18778;47.610;9.776;2024-01-30T08:58:47;14.17;;;10.90;;
7919;SDS011;18778;47.610;9.776;2024-01-30T09:01:12;13.90;;;9.13;;
7919;SDS011;18778;47.610;9.776;2024-01-30T09:03:38;12.20;;;9.80;;
7919;SDS011;18778;47.610;9.776;2024-01-30T09:06:09;11.53;;;8.90;;
7919;SDS011;18778;47.610;9.776;2024-01-30T09:08:35;9.67;;;8.30;;
7919;SDS011;18778;47.610;9.776;2024-01-30T09:11:01;10.47;;;8.30;;
7919;SDS011;18778;47.610;9.776;2024-01-30T09:13:27;12.07;;;9.50;;
7919;SDS011;18778;47.610;9.776;2024-01-30T09:15:53;8.60;;;7.50;;
7919;SDS011;18778;47.610;9.776;2024-01-30T09:18:18;8.50;;;6.90;;
7919;SDS011;18778;47.610;9.776;2024-01-30T09:20:44;8.53;;;6.90;;
7919;SDS011;18778;47.610;9.776;2024-01-30T09:23:12;7.10;;;6.07;;
7919;SDS011;18778;47.610;9.776;2024-01-30T09:25:38;6.93;;;6.00;;
7919;SDS011;18778;47.610;9.776;2024-01-30T09:28:04;7.47;;;6.40;;
7919;SDS011;18778;47.610;9.776;2024-01-30T09:30:30;6.40;;;5.73;;
7919;SDS011;18778;47.610;9.776;2024-01-30T09:32:56;6.90;;;6.20;;
7919;SDS011;18778;47.610;9.776;2024-01-30T09:35:21;9.73;;;6.30;;
7919;SDS011;18778;47.610;9.776;2024-01-30T09:37:47;7.07;;;6.00;;
7919;SDS011;18778;47.610;9.776;2024-01-30T09:40:13;7.03;;;5.70;;
7919;SDS011;18778;47.610;9.776;2024-01-30T09:42:43;7.10;;;6.23;;
7919;SDS011;18778;47.610;9.776;2024-01-30T09:45:15;8.03;;;5.90;;
7919;SDS011;18778;47.610;9.776;2024-01-30T09:47:44;8.30;;;5.50;;
7919;SDS011;18778;47.610;9.776;2024-01-30T09:50:11;6.30;;;5.50;;
7919;SDS011;18778;47.610;9.776;2024-01-30T09:52:38;8.53;;;5.07;;
7919;SDS011;18778;47.610;9.776;2024-01-30T09:55:04;7.27;;;6.27;;
7919;SDS011;18778;47.610;9.776;2024-01-30T09:57:31;7.90;;;6.80;;
7919;SDS011;18778;47.610;9.776;2024-01-30T09:59:56;7.20;;;6.50;;
7919;SDS011;18778;47.610;9.776;2024-01-30T10:02:22;8.23;;;6.67;;
7919;SDS011;18778;47.610;9.776;2024-01-30T10:04:49;7.00;;;6.40;;
7919;SDS011;18778;47.610;9.776;2024-01-30T10:07:15;7.23;;;6.20;;
7919;SDS011;18778;47.610;9.776;2024-01-30T10:09:42;6.67;;;5.57;;
7919;SDS011;18778;47.610;9.776;2024-01-30T10:12:08;8.13;;;6.00;;
7919;SDS011;18778;47.610;9.776;2024-01-30T10:14:37;7.10;;;6.23;;
7919;SDS011;18778;47.610;9.776;2024-01-30T10:17:03;7.87;;;6.27;;
7919;SDS011;18778;47.610;9.776;2024-01-30T10:19:30;7.23;;;6.53;;
7919;SDS011;18778;47.610;9.776;2024-01-30T10:21:56;7.27;;;6.20;;
7919;SDS011;18778;47.610;9.776;2024-01-30T10:24:25;32.63;;;20.73;;
7919;SDS011;18778;47.610;9.776;2024-01-30T10:26:52;40.63;;;25.13;;
7919;SDS011;18778;47.610;9.776;2024-01-30T10:29:18;11.97;;;9.40;;
7919;SDS011;18778;47.610;9.776;2024-01-30T10:31:44;14.77;;;9.20;;
7919;SDS011;18778;47.610;9.776;2024-01-30T10:34:10;9.70;;;8.63;;
7919;SDS011;18778;47.610;9.776;2024-01-30T10:36:39;9.37;;;6.80;;
7919;SDS011;18778;47.610;9.776;2024-01-30T10:39:08;6.87;;;6.07;;
7919;SDS011;18778;47.610;9.776;2024-01-30T10:41:37;6.30;;;5.70;;
7919;SDS011;18778;47.610;9.776;2024-01-30T10:44:09;9.20;;;6.13;;
7919;SDS011;18778;47.610;9.776;2024-01-30T10:46:37;6.03;;;5.43;;
7919;SDS011;18778;47.610;9.776;2024-01-30T10:49:03;6.10;;;5.40;;
7919;SDS011;18778;47.610;9.776;2024-01-30T10:51:30;8.47;;;6.40;;
7919;SDS011;18778;47.610;9.776;2024-01-30T10:53:57;6.50;;;5.90;;
7919;SDS011;18778;47.610;9.776;2024-01-30T10:56:23;6.03;;;5.40;;
7919;SDS011;18778;47.610;9.776;2024-01-30T10:58:50;7.43;;;5.43;;
7919;SDS011;18778;47.610;9.776;2024-01-30T11:01:22;5.87;;;5.27;;
7919;SDS011;18778;47.610;9.776;2024-01-30T11:03:52;6.20;;;5.60;;
7919;SDS011;18778;47.610;9.776;2024-01-30T11:06:18;9.07;;;5.47;;
7919;SDS011;18778;47.610;9.776;2024-01-30T11:08:59;7.17;;;5.57;;
7919;SDS011;18778;47.610;9.776;2024-01-30T11:11:29;5.73;;;4.77;;
7919;SDS011;18778;47.610;9.776;2024-01-30T11:13:55;6.17;;;5.07;;
7919;SDS011;18778;47.610;9.776;2024-01-30T11:16:20;7.60;;;5.90;;
7919;SDS011;18778;47.610;9.776;2024-01-30T11:18:50;6.93;;;5.40;;
7919;SDS011;18778;47.610;9.776;2024-01-30T11:21:18;6.07;;;5.40;;
7919;SDS011;18778;47.610;9.776;2024-01-30T11:23:44;6.27;;;5.67;;
7919;SDS011;18778;47.610;9.776;2024-01-30T11:26:10;5.50;;;5.00;;
7919;SDS011;18778;47.610;9.776;2024-01-30T11:28:37;7.40;;;5.00;;
7919;SDS011;18778;47.610;9.776;2024-01-30T11:31:06;6.00;;;5.50;;
7919;SDS011;18778;47.610;9.776;2024-01-30T11:33:32;5.00;;;4.50;;
7919;SDS011;18778;47.610;9.776;2024-01-30T11:35:59;5.33;;;4.50;;
7919;SDS011;18778;47.610;9.776;2024-01-30T11:38:25;5.97;;;5.20;;
7919;SDS011;18778;47.610;9.776;2024-01-30T11:40:55;6.60;;;5.90;;
7919;SDS011;18778;47.610;9.776;2024-01-30T11:43:23;7.27;;;5.97;;
7919;SDS011;18778;47.610;9.776;2024-01-30T11:45:49;7.43;;;5.90;;
7919;SDS011;18778;47.610;9.776;2024-01-30T11:48:16;6.63;;;5.90;;
7919;SDS011;18778;47.610;9.776;2024-01-30T11:50:42;7.70;;;6.67;;
7919;SDS011;18778;47.610;9.776;2024-01-30T11:53:09;7.57;;;6.73;;
7919;SDS011;18778;47.610;9.776;2024-01-30T11:55:35;7.73;;;7.03;;
7919;SDS011;18778;47.610;9.776;2024-01-30T11:58:02;7.87;;;6.53;;
7919;SDS011;18778;47.610;9.776;2024-01-30T12:00:29;6.93;;;6.33;;
7919;SDS011;18778;47.610;9.776;2024-01-30T12:02:56;9.13;;;6.93;;
7919;SDS011;18778;47.610;9.776;2024-01-30T12:05:22;8.60;;;7.00;;
7919;SDS011;18778;47.610;9.776;2024-01-30T12:07:51;7.80;;;7.00;;
7919;SDS011;18778;47.610;9.776;2024-01-30T12:10:17;9.27;;;8.13;;
7919;SDS011;18778;47.610;9.776;2024-01-30T12:12:44;9.07;;;8.10;;
7919;SDS011;18778;47.610;9.776;2024-01-30T12:15:16;11.77;;;8.90;;
7919;SDS011;18778;47.610;9.776;2024-01-30T12:17:46;11.40;;;8.90;;
7919;SDS011;18778;47.610;9.776;2024-01-30T12:20:17;12.53;;;9.67;;
7919;SDS011;18778;47.610;9.776;2024-01-30T12:22:44;10.40;;;8.50;;
7919;SDS011;18778;47.610;9.776;2024-01-30T12:25:12;10.60;;;9.03;;
7919;SDS011;18778;47.610;9.776;2024-01-30T12:27:39;10.20;;;9.10;;
7919;SDS011;18778;47.610;9.776;2024-01-30T12:30:08;10.33;;;9.20;;
7919;SDS011;18778;47.610;9.776;2024-01-30T12:32:35;10.33;;;9.13;;
7919;SDS011;18778;47.610;9.776;2024-01-30T12:35:01;12.80;;;9.57;;
7919;SDS011;18778;47.610;9.776;2024-01-30T12:37:29;10.90;;;9.65;;
7919;SDS011;18778;47.610;9.776;2024-01-30T12:39:55;10.60;;;9.33;;
7919;SDS011;18778;47.610;9.776;2024-01-30T12:42:21;11.27;;;9.90;;
7919;SDS011;18778;47.610;9.776;2024-01-30T12:44:47;10.90;;;9.77;;
7919;SDS011;18778;47.610;9.776;2024-01-30T12:47:14;10.57;;;9.47;;
7919;SDS011;18778;47.610;9.776;2024-01-30T12:49:43;10.33;;;9.07;;
7919;SDS011;18778;47.610;9.776;2024-01-30T12:52:09;10.70;;;9.60;;
7919;SDS011;18778;47.610;9.776;2024-01-30T12:54:37;10.50;;;8.83;;
7919;SDS011;18778;47.610;9.776;2024-01-30T12:57:03;8.70;;;7.80;;
7919;SDS011;18778;47.610;9.776;2024-01-30T12:59:30;10.73;;;8.90;;
7919;SDS011;18778;47.610;9.776;2024-01-30T13:01:55;10.50;;;8.30;;
7919;SDS011;18778;47.610;9.776;2024-01-30T13:04:22;9.40;;;7.90;;
7919;SDS011;18778;47.610;9.776;2024-01-30T13:06:48;9.13;;;8.23;;
7919;SDS011;18778;47.610;9.776;2024-01-30T13:09:13;9.30;;;8.33;;
7919;SDS011;18778;47.610;9.776;2024-01-30T13:11:39;9.07;;;8.17;;
7919;SDS011;18778;47.610;9.776;2024-01-30T13:14:05;9.70;;;7.60;;
7919;SDS011;18778;47.610;9.776;2024-01-30T13:16:30;8.13;;;7.33;;
7919;SDS011;18778;47.610;9.776;2024-01-30T13:18:56;9.13;;;7.27;;
7919;SDS011;18778;47.610;9.776;2024-01-30T13:21:22;10.73;;;7.97;;
7919;SDS011;18778;47.610;9.776;2024-01-30T13:23:47;9.30;;;7.37;;
7919;SDS011;18778;47.610;9.776;2024-01-30T13:26:13;10.63;;;8.00;;
7919;SDS011;18778;47.610;9.776;2024-01-30T13:28:38;8.23;;;7.07;;
7919;SDS011;18778;47.610;9.776;2024-01-30T13:31:04;10.87;;;8.10;;
7919;SDS011;18778;47.610;9.776;2024-01-30T13:33:31;8.83;;;7.97;;
7919;SDS011;18778;47.610;9.776;2024-01-30T13:35:57;12.50;;;10.40;;
7919;SDS011;18778;47.610;9.776;2024-01-30T13:38:23;12.50;;;8.90;;
7919;SDS011;18778;47.610;9.776;2024-01-30T13:40:48;9.83;;;8.83;;
7919;SDS011;18778;47.610;9.776;2024-01-30T13:43:14;9.70;;;8.47;;
7919;SDS011;18778;47.610;9.776;2024-01-30T13:45:41;9.70;;;8.70;;
7919;SDS011;18778;47.610;9.776;2024-01-30T13:48:07;9.57;;;8.57;;
7919;SDS011;18778;47.610;9.776;2024-01-30T13:50:33;12.17;;;8.93;;
7919;SDS011;18778;47.610;9.776;2024-01-30T13:52:59;12.83;;;10.33;;
7919;SDS011;18778;47.610;9.776;2024-01-30T13:55:24;10.77;;;9.60;;
7919;SDS011;18778;47.610;9.776;2024-01-30T13:57:50;12.03;;;9.80;;
7919;SDS011;18778;47.610;9.776;2024-01-30T14:00:16;12.93;;;10.30;;
7919;SDS011;18778;47.610;9.776;2024-01-30T14:02:42;12.93;;;9.97;;
7919;SDS011;18778;47.610;9.776;2024-01-30T14:05:08;11.67;;;10.47;;
7919;SDS011;18778;47.610;9.776;2024-01-30T14:07:35;14.23;;;10.50;;
7919;SDS011;18778;47.610;9.776;2024-01-30T14:10:02;15.37;;;10.00;;
7919;SDS011;18778;47.610;9.776;2024-01-30T14:12:28;13.83;;;10.57;;
7919;SDS011;18778;47.610;9.776;2024-01-30T14:14:55;38.43;;;27.87;;
7919;SDS011;18778;47.610;9.776;2024-01-30T14:17:20;24.17;;;20.30;;
7919;SDS011;18778;47.610;9.776;2024-01-30T14:19:46;13.47;;;10.83;;
7919;SDS011;18778;47.610;9.776;2024-01-30T14:22:12;14.33;;;12.83;;
7919;SDS011;18778;47.610;9.776;2024-01-30T14:24:37;13.83;;;11.70;;
7919;SDS011;18778;47.610;9.776;2024-01-30T14:27:03;16.63;;;12.77;;
7919;SDS011;18778;47.610;9.776;2024-01-30T14:29:29;17.33;;;12.23;;
7919;SDS011;18778;47.610;9.776;2024-01-30T14:31:54;14.73;;;12.70;;
7919;SDS011;18778;47.610;9.776;2024-01-30T14:34:21;14.57;;;11.80;;
7919;SDS011;18778;47.610;9.776;2024-01-30T14:36:46;13.67;;;11.40;;
7919;SDS011;18778;47.610;9.776;2024-01-30T14:39:12;13.53;;;10.73;;
7919;SDS011;18778;47.610;9.776;2024-01-30T14:41:37;10.07;;;8.97;;
7919;SDS011;18778;47.610;9.776;2024-01-30T14:44:03;12.00;;;9.97;;